Time;durP1;ratioP1;P1;durP2;ratioP2;P2;SDS_P1;SDS_P2;PMS_P1;PMS_P2;Temp;Humidity;BMP_temperature;BMP_pressure;BME280_temperature;BME280_humidity;BME280_pressure;Samples;Min_cycle;Max_cycle;Signal;HPM_P1;HPM_P2
2022/06/03 00:01:16;;;;;;;12.82;10.48;;;;;;;15.69;100.00;99431.22;4715310;30;20129;-88
2022/06/03 00:04:51;;;;;;;13.70;11.57;;;;;;;15.70;100.00;99427.53;4651903;30;20082;-86
2022/06/03 00:07:51;;;;;;;13.45;10.93;;;;;;;15.68;100.00;99426.94;4665558;30;20120;-88
2022/06/03 00:11:10;;;;;;;15.88;12.77;;;;;;;15.53;100.00;99422.84;4680322;30;20087;-87
2022/06/03 00:14:17;;;;;;;18.15;12.88;;;;;;;15.44;100.00;99425.97;4697890;30;20072;-85
2022/06/03 00:17:21;;;;;;;17.20;11.07;;;;;;;15.59;100.00;99420.34;4664512;30;20569;-86
2022/06/03 00:20:28;;;;;;;14.65;11.85;;;;;;;15.54;100.00;99413.88;4646893;30;20069;-86
2022/06/03 00:23:51;;;;;;;15.38;11.35;;;;;;;15.51;100.00;99416.13;4694535;30;20115;-87
2022/06/03 00:26:55;;;;;;;15.38;10.57;;;;;;;15.55;100.00;99423.41;4698853;30;20056;-86
2022/06/03 00:30:19;;;;;;;13.90;11.60;;;;;;;15.54;100.00;99419.16;4665235;30;20112;-87
2022/06/03 00:33:42;;;;;;;18.55;12.05;;;;;;;15.52;100.00;99407.97;4691964;30;20050;-85
2022/06/03 00:37:18;;;;;;;16.90;11.35;;;;;;;15.43;100.00;99425.16;4681267;30;20050;-84
2022/06/03 00:40:24;;;;;;;15.52;11.88;;;;;;;15.47;100.00;99415.75;4676346;30;20551;-86
2022/06/03 00:43:48;;;;;;;18.02;12.20;;;;;;;15.45;100.00;99411.72;4681397;30;20053;-86
2022/06/03 00:46:56;;;;;;;14.80;11.70;;;;;;;15.42;100.00;99415.59;4680937;30;20188;-85
2022/06/03 00:50:05;;;;;;;16.08;11.68;;;;;;;15.45;100.00;99417.81;4669246;30;20097;-89
2022/06/03 00:53:32;;;;;;;14.43;11.02;;;;;;;15.44;100.00;99416.19;4681460;30;20053;-88
2022/06/03 00:56:44;;;;;;;14.45;10.82;;;;;;;15.46;100.00;99414.13;4671575;30;20088;-86
2022/06/03 00:59:49;;;;;;;15.07;12.40;;;;;;;15.43;100.00;99414.56;4706885;30;20551;-88
2022/06/03 01:03:06;;;;;;;13.82;12.13;;;;;;;15.39;100.00;99423.97;4685558;30;20125;-86
2022/06/03 01:06:08;;;;;;;14.13;12.32;;;;;;;15.34;100.00;99419.31;4701349;30;20051;-85
2022/06/03 01:09:30;;;;;;;15.77;12.48;;;;;;;15.39;100.00;99421.31;4704854;30;20057;-84
2022/06/03 01:12:17;;;;;;;17.92;12.57;;;;;;;15.34;100.00;99415.88;4702973;30;20137;-88
2022/06/03 01:15:23;;;;;;;19.65;13.00;;;;;;;15.40;100.00;99418.44;4663838;30;20055;-86
2022/06/03 01:18:07;;;;;;;15.82;12.77;;;;;;;15.38;100.00;99417.84;4663371;30;20108;-85
2022/06/03 01:21:13;;;;;;;14.57;12.02;;;;;;;15.39;100.00;99408.09;4683497;30;20056;-87
2022/06/03 01:24:10;;;;;;;17.02;13.32;;;;;;;15.38;100.00;99414.41;4685674;30;20413;-89
2022/06/03 01:27:10;;;;;;;17.83;13.68;;;;;;;15.34;100.00;99407.94;4679968;30;20107;-87
2022/06/03 01:30:13;;;;;;;14.48;12.95;;;;;;;15.41;100.00;99408.69;4688261;30;20107;-88
2022/06/03 01:33:16;;;;;;;15.73;13.02;;;;;;;15.38;100.00;99417.06;4693707;30;20056;-88
2022/06/03 01:36:16;;;;;;;13.63;12.20;;;;;;;15.35;100.00;99412.22;4714394;30;20441;-88
2022/06/03 01:39:37;;;;;;;16.45;12.50;;;;;;;15.36;100.00;99413.81;4678672;30;20437;-87
2022/06/03 01:43:09;;;;;;;16.40;12.80;;;;;;;15.38;100.00;99407.28;4671849;30;20054;-87
2022/06/03 01:46:24;;;;;;;16.55;12.80;;;;;;;15.36;100.00;99405.88;4678364;30;20050;-85
2022/06/03 01:49:40;;;;;;;17.05;13.15;;;;;;;15.33;100.00;99414.22;4679350;30;20053;-87
2022/06/03 01:52:43;;;;;;;15.85;12.73;;;;;;;15.33;100.00;99414.22;4702134;30;20058;-87
2022/06/03 01:56:02;;;;;;;18.30;13.27;;;;;;;15.31;100.00;99411.00;4730199;30;20060;-86
2022/06/03 01:59:12;;;;;;;15.73;13.10;;;;;;;15.19;100.00;99411.72;4686694;30;20046;-86
2022/06/03 02:02:08;;;;;;;16.02;12.55;;;;;;;15.18;100.00;99412.75;4705388;30;20063;-86
2022/06/03 02:05:36;;;;;;;16.30;13.48;;;;;;;15.12;100.00;99414.41;4743411;30;20412;-87
2022/06/03 02:09:02;;;;;;;14.25;12.10;;;;;;;15.09;100.00;99419.31;4708145;30;20087;-86
2022/06/03 02:11:52;;;;;;;15.95;12.95;;;;;;;15.07;100.00;99408.13;4690694;30;20053;-86
2022/06/03 02:15:05;;;;;;;16.88;12.35;;;;;;;15.12;100.00;99409.13;4695669;30;20596;-88
2022/06/03 02:18:13;;;;;;;15.15;12.23;;;;;;;15.08;100.00;99394.72;4714034;30;20477;-86
2022/06/03 02:21:16;;;;;;;15.88;12.73;;;;;;;15.04;100.00;99403.28;4762564;30;20142;-85
2022/06/03 02:24:25;;;;;;;15.95;12.00;;;;;;;15.08;100.00;99401.81;4761674;30;20047;-85
2022/06/03 02:27:23;;;;;;;15.55;12.80;;;;;;;15.07;100.00;99411.59;4762952;30;20130;-86
2022/06/03 02:30:32;;;;;;;14.25;12.18;;;;;;;15.04;100.00;99400.66;4774845;30;20403;-86
2022/06/03 02:33:48;;;;;;;15.00;12.95;;;;;;;15.07;100.00;99405.50;4760741;30;20054;-86
2022/06/03 02:36:53;;;;;;;14.30;12.10;;;;;;;15.11;100.00;99411.97;4724233;30;20040;-87
2022/06/03 02:39:54;;;;;;;12.95;11.35;;;;;;;15.06;100.00;99404.69;4735026;30;20508;-84
2022/06/03 02:43:08;;;;;;;13.73;11.68;;;;;;;15.08;100.00;99409.75;4739999;30;20554;-86
2022/06/03 02:46:31;;;;;;;14.40;11.50;;;;;;;15.05;100.00;99411.00;4739783;30;20098;-85
2022/06/03 02:49:26;;;;;;;12.50;11.20;;;;;;;15.05;100.00;99412.84;4739874;30;20117;-86
2022/06/03 02:52:51;;;;;;;13.40;10.85;;;;;;;15.06;100.00;99409.16;4721157;30;20067;-87
2022/06/03 02:56:01;;;;;;;14.75;11.45;;;;;;;15.06;100.00;99414.47;4680856;30;20050;-86
2022/06/03 02:59:10;;;;;;;13.25;11.00;;;;;;;15.04;100.00;99411.22;4682219;30;20139;-86
2022/06/03 03:02:52;;;;;;;12.70;10.90;;;;;;;15.05;100.00;99402.25;4682055;30;20058;-86
2022/06/03 03:06:14;;;;;;;12.73;10.93;;;;;;;14.96;100.00;99402.53;4667821;30;20120;-87
2022/06/03 03:09:29;;;;;;;13.35;11.07;;;;;;;14.96;100.00;99405.19;4674006;30;20166;-86
2022/06/03 03:12:31;;;;;;;13.23;10.65;;;;;;;14.96;100.00;99409.63;4692929;30;20099;-86
2022/06/03 03:15:44;;;;;;;14.57;12.07;;;;;;;14.90;100.00;99407.88;4647576;30;20047;-85
2022/06/03 03:18:42;;;;;;;17.55;12.80;;;;;;;14.83;100.00;99400.78;4689354;30;20045;-87
2022/06/03 03:21:41;;;;;;;20.25;13.65;;;;;;;14.75;100.00;99403.69;4692884;30;20068;-85
2022/06/03 03:24:52;;;;;;;16.65;13.82;;;;;;;14.69;100.00;99409.78;4703963;30;20057;-88
2022/06/03 03:28:00;;;;;;;23.60;15.63;;;;;;;14.67;100.00;99406.56;4701901;30;20080;-86
2022/06/03 03:31:41;;;;;;;21.75;15.15;;;;;;;14.59;100.00;99412.91;4707874;30;20041;-86
2022/06/03 03:34:38;;;;;;;21.00;14.93;;;;;;;14.51;100.00;99418.41;4707420;30;20096;-88
2022/06/03 03:38:15;;;;;;;25.02;15.38;;;;;;;14.37;100.00;99413.22;4706233;30;20049;-87
2022/06/03 03:41:25;;;;;;;20.90;15.40;;;;;;;14.40;100.00;99411.97;4715147;30;20056;-86
2022/06/03 03:44:19;;;;;;;21.67;15.57;;;;;;;14.42;100.00;99418.66;4768236;30;20076;-86
2022/06/03 03:47:48;;;;;;;23.85;16.95;;;;;;;14.46;100.00;99419.06;4698818;30;20046;-86
2022/06/03 03:50:56;;;;;;;;;;;;;;;14.39;100.00;99413.81;4698858;30;20053;-86
2022/06/03 03:54:08;;;;;;;21.45;16.25;;;;;;;14.38;100.00;99414.81;4664183;30;19923;-86
2022/06/03 03:57:18;;;;;;;22.52;17.45;;;;;;;14.37;100.00;99409.75;4663895;30;20074;-86
2022/06/03 04:00:24;;;;;;;27.30;17.67;;;;;;;14.37;100.00;99413.22;4665142;30;20139;-84
2022/06/03 04:03:33;;;;;;;20.83;16.60;;;;;;;14.31;100.00;99403.47;4677632;30;20089;-87
2022/06/03 04:06:28;;;;;;;26.83;18.45;;;;;;;14.35;100.00;99409.97;4715746;30;20053;-87
2022/06/03 04:09:36;;;;;;;28.02;17.75;;;;;;;14.32;100.00;99405.09;4695064;30;20055;-87
2022/06/03 04:12:28;;;;;;;27.63;19.10;;;;;;;14.33;100.00;99416.47;4725505;30;20037;-85
2022/06/03 04:15:49;;;;;;;22.85;17.10;;;;;;;14.25;100.00;99417.50;4732921;30;20182;-86
2022/06/03 04:19:02;;;;;;;20.83;16.80;;;;;;;14.16;100.00;99416.13;4721351;30;20462;-85
2022/06/03 04:22:08;;;;;;;19.60;16.27;;;;;;;14.08;100.00;99415.34;4723155;30;20611;-85
2022/06/03 04:25:06;;;;;;;18.38;15.73;;;;;;;14.03;100.00;99412.50;4698147;30;20220;-88
2022/06/03 04:28:02;;;;;;;24.85;16.58;;;;;;;14.04;100.00;99403.56;4699039;30;20060;-87
2022/06/03 04:31:33;;;;;;;21.83;16.17;;;;;;;14.00;100.00;99410.28;4645628;30;20053;-86
2022/06/03 04:34:46;;;;;;;23.77;15.38;;;;;;;13.87;100.00;99408.50;4646547;30;20074;-88
2022/06/03 04:38:07;;;;;;;22.33;15.80;;;;;;;13.82;100.00;99408.28;4641775;30;20139;-87
2022/06/03 04:41:10;;;;;;;17.63;14.90;;;;;;;13.88;100.00;99415.41;4642433;30;20112;-87
2022/06/03 04:44:09;;;;;;;17.40;14.85;;;;;;;13.98;100.00;99412.34;4643240;30;20168;-88
2022/06/03 04:47:11;;;;;;;18.70;14.55;;;;;;;13.94;100.00;99414.56;4638380;30;20049;-85
2022/06/03 04:50:20;;;;;;;20.30;15.43;;;;;;;13.83;100.00;99408.09;4637856;30;20546;-87
2022/06/03 04:53:22;;;;;;;17.25;14.32;;;;;;;13.83;100.00;99418.66;4640813;30;20059;-87
2022/06/03 04:56:28;;;;;;;15.73;13.45;;;;;;;13.90;100.00;99420.47;4641481;30;20061;-88
2022/06/03 04:59:20;;;;;;;16.60;14.00;;;;;;;13.89;100.00;99421.47;4649243;30;20050;-85
2022/06/03 05:02:26;;;;;;;17.65;13.75;;;;;;;13.84;100.00;99420.28;4637629;30;20050;-86
2022/06/03 05:05:16;;;;;;;16.70;13.50;;;;;;;13.87;100.00;99428.78;4638936;30;20471;-86
2022/06/03 05:09:14;;;;;;;15.90;12.20;;;;;;;13.90;100.00;99425.75;4589684;31;20048;-87
2022/06/03 05:12:37;;;;;;;14.63;12.10;;;;;;;13.85;100.00;99432.44;4709451;30;20084;-85
2022/06/03 05:15:40;;;;;;;14.98;12.85;;;;;;;13.87;100.00;99428.78;4613132;31;20149;-87
2022/06/03 05:18:50;;;;;;;15.90;13.23;;;;;;;13.77;100.00;99432.69;4691919;30;20041;-85
2022/06/03 05:22:34;;;;;;;16.35;12.57;;;;;;;13.80;100.00;99424.34;4709709;30;20139;-85
2022/06/03 05:25:41;;;;;;;14.50;12.23;;;;;;;13.83;100.00;99439.75;4697567;30;20041;-85
2022/06/03 05:29:05;;;;;;;16.35;13.23;;;;;;;13.83;100.00;99444.22;4680018;30;20068;-87
2022/06/03 05:32:08;;;;;;;16.77;13.38;;;;;;;13.90;100.00;99438.94;4677457;30;20136;-86
2022/06/03 05:35:29;;;;;;;14.38;12.10;;;;;;;13.91;100.00;99445.81;4674083;30;20088;-85
2022/06/03 05:38:45;;;;;;;18.50;12.95;;;;;;;13.73;100.00;99446.47;4663967;30;20046;-87
2022/06/03 05:45:25;;;;;;;;;;;;;;;13.87;100.00;99455.19;4697581;30;20044;-82
2022/06/03 05:48:18;;;;;;;20.58;14.25;;;;;;;13.82;100.00;99459.25;4697643;30;19926;-86
2022/06/03 05:51:22;;;;;;;;;;;;;;;13.81;100.00;99451.53;4702309;30;20497;-86
2022/06/03 05:54:44;;;;;;;19.00;14.50;;;;;;;13.68;100.00;99455.00;4712286;30;19948;-86
2022/06/03 05:57:39;;;;;;;20.60;14.65;;;;;;;13.78;100.00;99449.31;4737412;30;20058;-87
2022/06/03 06:00:21;;;;;;;18.27;14.02;;;;;;;13.89;100.00;99456.59;4754345;30;20044;-83
2022/06/03 06:03:10;;;;;;;18.70;13.20;;;;;;;13.97;100.00;99460.84;4753484;30;20525;-87
2022/06/03 06:06:31;;;;;;;18.33;14.07;;;;;;;13.94;100.00;99467.34;4762788;30;20048;-85
2022/06/03 06:09:37;;;;;;;21.55;15.32;;;;;;;14.07;100.00;99463.88;4772285;29;20455;-85
2022/06/03 06:13:09;;;;;;;19.38;13.07;;;;;;;14.14;100.00;99455.94;4826866;29;20524;-83
2022/06/03 06:16:07;;;;;;;21.52;14.45;;;;;;;14.24;100.00;99464.22;4807237;29;20038;-86
2022/06/03 06:19:09;;;;;;;19.90;14.45;;;;;;;14.14;100.00;99467.28;4815372;29;20045;-86
2022/06/03 06:22:07;;;;;;;20.38;14.93;;;;;;;14.27;100.00;99471.75;4812529;29;20046;-85
2022/06/03 06:24:35;;;;;;;19.50;14.45;;;;;;;14.42;100.00;99463.56;4811128;29;20110;-85
2022/06/03 06:27:45;;;;;;;20.35;14.27;;;;;;;14.41;100.00;99467.22;4806899;29;20629;-84
2022/06/03 06:30:35;;;;;;;;;;;;;;;14.52;100.00;99467.56;4755556;30;20041;-87
2022/06/03 06:34:10;;;;;;;23.95;15.18;;;;;;;14.57;100.00;99470.41;4757165;30;19925;-84
2022/06/03 06:37:30;;;;;;;20.63;14.73;;;;;;;14.49;100.00;99463.53;4700599;30;20129;-85
2022/06/03 06:40:49;;;;;;;21.88;15.70;;;;;;;14.63;100.00;99477.50;4700485;30;20151;-85
2022/06/03 06:43:39;;;;;;;19.92;15.25;;;;;;;14.53;100.00;99475.31;4753926;30;20067;-85
2022/06/03 06:46:46;;;;;;;21.25;15.48;;;;;;;14.73;100.00;99484.16;4735812;30;20048;-84
2022/06/03 06:50:20;;;;;;;20.13;14.70;;;;;;;14.90;100.00;99480.03;4719293;30;20049;-84
2022/06/03 06:53:06;;;;;;;19.52;14.77;;;;;;;14.84;100.00;99481.69;4669012;30;20109;-88
2022/06/03 06:56:09;;;;;;;22.40;15.32;;;;;;;15.00;100.00;99482.19;4690656;30;20421;-87
2022/06/03 06:59:00;;;;;;;;;;;;;;;14.92;100.00;99490.41;4697003;30;20060;-86
2022/06/03 07:02:03;;;;;;;20.20;15.13;;;;;;;14.79;100.00;99481.50;4699781;30;19966;-86
2022/06/03 07:05:13;;;;;;;19.30;15.55;;;;;;;15.03;100.00;99481.78;4710835;30;20190;-85
2022/06/03 07:08:09;;;;;;;18.00;15.05;;;;;;;15.27;100.00;99495.28;4709223;30;20408;-86
2022/06/03 07:11:03;;;;;;;15.83;11.53;;;;;;;15.65;100.00;99485.59;4706815;30;20089;-87
2022/06/03 07:14:06;;;;;;;16.58;14.13;;;;;;;15.84;100.00;99489.13;4648932;30;20780;-85
2022/06/03 07:20:45;;;;;;;16.85;14.05;;;;;;;15.99;100.00;99491.44;4618786;31;20043;-90
2022/06/03 07:23:50;;;;;;;16.48;13.77;;;;;;;16.03;100.00;99491.81;4634950;30;20061;-88
2022/06/03 07:26:47;;;;;;;16.83;13.13;;;;;;;16.20;100.00;99487.53;4683392;30;20659;-88
2022/06/03 07:29:48;;;;;;;17.00;13.07;;;;;;;16.12;100.00;99480.72;4715472;30;20449;-86
2022/06/03 07:32:57;;;;;;;19.02;14.35;;;;;;;15.99;100.00;99486.16;4715284;30;20115;-86
2022/06/03 07:35:47;;;;;;;19.80;13.90;;;;;;;15.85;100.00;99480.94;4713044;30;20047;-86
2022/06/03 07:38:34;;;;;;;22.53;13.20;;;;;;;15.71;100.00;99490.03;4712875;30;20099;-86
2022/06/03 07:41:37;;;;;;;18.85;13.20;;;;;;;15.45;100.00;99486.59;4718134;30;20444;-87
2022/06/03 07:44:14;;;;;;;18.55;12.68;;;;;;;15.18;100.00;99485.97;4716063;30;20482;-84
2022/06/03 07:47:06;;;;;;;15.63;11.52;;;;;;;15.07;100.00;99490.09;4716431;30;20049;-87
2022/06/03 07:49:56;;;;;;;18.48;11.80;;;;;;;15.01;100.00;99497.03;4715207;30;20095;-85
2022/06/03 07:52:54;;;;;;;17.17;11.65;;;;;;;15.02;100.00;99503.16;4771326;29;20042;-88
2022/06/03 07:55:40;;;;;;;19.08;10.85;;;;;;;14.76;100.00;99495.16;4830007;29;20039;-90
2022/06/03 07:58:17;;;;;;;13.02;10.02;;;;;;;14.80;100.00;99498.19;4823112;29;20043;-86
2022/06/03 08:00:45;;;;;;;12.75;9.88;;;;;;;14.94;100.00;99510.31;4795303;29;20046;-84
2022/06/03 08:03:37;;;;;;;11.90;9.75;;;;;;;14.99;100.00;99507.84;4790256;29;20050;-82
2022/06/03 08:10:56;;;;;;;12.75;8.68;;;;;;;15.10;100.00;99493.13;4825315;29;20052;-86
2022/06/03 08:13:04;;;;;;;14.27;8.68;;;;;;;15.54;100.00;99500.34;4807146;29;20129;-86
2022/06/03 08:15:35;;;;;;;13.82;8.50;;;;;;;15.76;100.00;99492.84;4806411;29;20042;-87
2022/06/03 08:18:07;;;;;;;12.45;7.72;;;;;;;15.85;100.00;99494.19;4806267;29;20089;-87
2022/06/03 08:21:14;;;;;;;8.20;7.38;;;;;;;15.82;99.50;99502.56;4794548;29;20057;-85
2022/06/03 08:24:04;;;;;;;8.25;7.28;;;;;;;15.81;99.18;99500.94;4794113;29;20055;-86
2022/06/03 08:26:36;;;;;;;8.77;7.10;;;;;;;15.70;98.86;99494.53;4808132;29;20035;-82
2022/06/03 08:29:48;;;;;;;8.75;7.68;;;;;;;15.84;98.87;99511.09;4791454;29;20176;-85
2022/06/03 08:32:26;;;;;;;10.52;6.85;;;;;;;15.94;99.55;99505.34;4792291;29;20066;-86
2022/06/03 08:35:24;;;;;;;8.88;7.07;;;;;;;16.05;98.85;99505.66;4808692;29;20051;-86
2022/06/03 08:38:24;;;;;;;8.80;6.93;;;;;;;16.04;97.84;99499.53;4795637;29;20047;-88
2022/06/03 08:41:18;;;;;;;9.07;6.15;;;;;;;16.25;98.04;99505.44;4785831;29;20065;-85
2022/06/03 08:44:28;;;;;;;8.07;6.38;;;;;;;16.42;98.85;99501.16;4794625;29;20425;-87
2022/06/03 08:47:21;;;;;;;7.85;7.03;;;;;;;16.51;96.51;99492.94;4806976;29;20501;-84
2022/06/03 08:50:41;;;;;;;8.43;6.13;;;;;;;16.96;95.79;99508.47;4794580;29;20080;-87
2022/06/03 08:53:54;;;;;;;7.68;6.05;;;;;;;17.35;95.40;99512.63;4793603;29;20489;-88
2022/06/03 08:57:12;;;;;;;8.07;5.78;;;;;;;17.72;94.70;99509.81;4780207;30;20051;-87
2022/06/03 09:00:20;;;;;;;5.38;4.88;;;;;;;18.06;95.94;99510.03;4773633;30;20100;-85
2022/06/03 09:03:13;;;;;;;7.97;5.32;;;;;;;18.07;93.39;99511.66;4786173;30;20043;-86
2022/06/03 09:06:33;;;;;;;8.95;6.68;;;;;;;18.10;93.45;99511.22;4772762;30;20047;-86
2022/06/03 09:09:47;;;;;;;8.48;6.15;;;;;;;17.95;95.62;99513.50;4787556;29;20046;-87
2022/06/03 09:12:40;;;;;;;8.93;6.07;;;;;;;17.89;94.36;99514.44;4824841;29;20041;-86
2022/06/03 09:15:33;;;;;;;8.73;5.82;;;;;;;17.78;96.15;99513.38;4781832;29;20107;-88
2022/06/03 09:18:17;;;;;;;7.07;6.22;;;;;;;17.69;94.28;99519.03;4783907;29;20054;-85
2022/06/03 09:21:09;;;;;;;7.35;6.20;;;;;;;17.34;96.09;99524.28;4792114;29;20513;-84
2022/06/03 09:24:22;;;;;;;7.68;6.07;;;;;;;17.45;96.32;99523.47;4808611;29;20398;-86
2022/06/03 09:26:58;;;;;;;8.20;6.65;;;;;;;17.44;96.05;99516.56;4782945;29;20051;-84
2022/06/03 09:29:30;;;;;;;7.10;6.28;;;;;;;17.53;98.23;99515.22;4789219;29;20054;-86
2022/06/03 09:32:03;;;;;;;8.48;6.47;;;;;;;17.67;99.63;99521.09;4775660;29;20541;-86
2022/06/03 09:34:47;;;;;;;10.00;7.45;;;;;;;17.72;98.84;99509.81;4821482;29;20043;-86
2022/06/03 09:37:35;;;;;;;12.32;8.13;;;;;;;17.73;95.74;99519.38;4792126;29;20085;-88
2022/06/03 09:40:31;;;;;;;9.65;7.63;;;;;;;17.59;98.29;99513.50;4804484;29;20068;-82
2022/06/03 09:43:03;;;;;;;10.80;7.07;;;;;;;17.66;97.15;99511.53;4805454;29;20058;-84
2022/06/03 09:45:31;;;;;;;8.13;7.22;;;;;;;17.54;97.46;99516.81;4804964;29;20077;-83
2022/06/03 09:48:04;;;;;;;9.68;7.25;;;;;;;17.39;98.47;99509.31;4809490;29;20524;-83
2022/06/03 09:50:31;;;;;;;12.38;6.93;;;;;;;17.61;98.06;99515.91;4809599;29;20394;-82
2022/06/03 09:53:19;;;;;;;8.52;7.38;;;;;;;17.49;95.93;99514.06;4811542;29;20055;-83
2022/06/03 09:56:07;;;;;;;13.38;8.48;;;;;;;17.38;97.82;99514.81;4814036;29;20042;-83
2022/06/03 09:58:58;;;;;;;12.32;7.80;;;;;;;17.63;98.23;99513.81;4806993;29;20061;-85
2022/06/03 10:01:49;;;;;;;12.85;9.30;;;;;;;17.60;95.42;99508.97;4794041;30;20055;-83
2022/06/03 10:04:22;;;;;;;9.50;8.55;;;;;;;17.73;94.98;99519.38;4790858;29;20041;-85
2022/06/03 10:07:09;;;;;;;13.00;8.82;;;;;;;17.85;95.84;99520.19;4798297;29;20078;-86
2022/06/03 10:13:00;;;;;;;11.10;9.45;;;;;;;17.63;92.21;99519.13;4826969;29;20057;-83
2022/06/03 10:15:42;;;;;;;9.13;8.18;;;;;;;17.85;90.77;99522.03;4814838;29;20457;-82
2022/06/03 10:18:41;;;;;;;13.93;8.55;;;;;;;18.00;88.66;99524.22;4795311;29;20082;-83
2022/06/03 10:21:50;;;;;;;8.88;8.02;;;;;;;18.08;90.83;99525.75;4777546;30;20051;-83
2022/06/03 10:24:50;;;;;;;11.40;8.73;;;;;;;18.32;91.19;99521.22;4786879;29;20671;-83
2022/06/03 10:27:36;;;;;;;8.52;7.72;;;;;;;18.40;87.74;99518.19;4806237;29;20043;-82
2022/06/03 10:30:28;;;;;;;12.38;9.25;;;;;;;18.46;87.92;99510.31;4723140;30;20135;-83
2022/06/03 10:33:22;;;;;;;10.27;8.65;;;;;;;18.47;85.63;99503.97;4692920;30;20068;-83
2022/06/03 10:35:57;;;;;;;11.23;8.88;;;;;;;18.59;86.08;99504.75;4731801;30;20112;-82
2022/06/03 10:38:29;;;;;;;12.93;8.93;;;;;;;18.85;88.49;99505.22;4764843;30;20047;-84
2022/06/03 10:41:05;;;;;;;13.48;9.88;;;;;;;18.94;85.65;99500.34;4780484;30;20131;-84
2022/06/03 10:43:52;;;;;;;12.60;9.27;;;;;;;19.11;88.07;99501.22;4772378;30;20043;-82
2022/06/03 10:46:29;;;;;;;11.68;9.73;;;;;;;19.04;88.25;99500.56;4776328;30;20079;-84
2022/06/03 10:49:21;;;;;;;10.55;9.45;;;;;;;19.19;86.86;99497.34;4769784;30;20044;-84
2022/06/03 11:04:03;;;;;;;13.30;9.38;;;;;;;19.46;85.98;99482.59;4752235;30;20048;-83
2022/06/03 11:06:38;;;;;;;12.70;9.65;;;;;;;19.62;85.66;99480.97;4749578;30;20090;-84
2022/06/03 11:09:24;;;;;;;12.30;8.98;;;;;;;19.53;86.00;99485.91;4751221;30;20051;-82
2022/06/03 11:12:10;;;;;;;12.27;9.00;;;;;;;19.36;83.90;99480.59;4699625;30;20150;-84
2022/06/03 11:14:41;;;;;;;13.45;8.70;;;;;;;19.31;80.93;99494.63;4698068;30;20049;-83
2022/06/03 11:17:34;;;;;;;8.98;8.07;;;;;;;19.39;80.71;99485.44;4714605;30;20053;-84
2022/06/03 11:20:40;;;;;;;9.60;8.60;;;;;;;19.25;82.15;99485.72;4724920;30;20139;-84
2022/06/03 11:23:22;;;;;;;10.63;9.25;;;;;;;19.24;82.51;99499.31;4730599;30;20564;-86
2022/06/03 11:26:00;;;;;;;12.00;9.10;;;;;;;19.36;80.31;99493.91;4745299;30;20051;-83
2022/06/03 11:28:53;;;;;;;10.45;8.60;;;;;;;19.92;80.58;99493.16;4716463;30;20064;-84
2022/06/03 11:31:45;;;;;;;11.13;9.68;;;;;;;20.30;80.21;99496.03;4704709;30;20045;-84
2022/06/03 11:34:50;;;;;;;12.20;9.38;;;;;;;20.69;79.56;99496.78;4711144;30;20551;-84
2022/06/03 11:37:40;;;;;;;11.98;9.43;;;;;;;20.65;79.83;99495.69;4716423;30;20045;-83
2022/06/03 11:40:34;;;;;;;12.37;10.60;;;;;;;20.85;80.42;99499.66;4690406;30;20050;-82
2022/06/03 11:43:43;;;;;;;12.75;10.15;;;;;;;20.69;75.55;99502.13;4724927;30;20056;-86
2022/06/03 11:46:42;;;;;;;14.27;9.55;;;;;;;20.83;76.65;99504.41;4749176;30;20051;-84
2022/06/03 11:49:28;;;;;;;10.98;9.00;;;;;;;20.76;74.91;99503.78;4734653;30;20455;-84
2022/06/03 11:52:16;;;;;;;14.35;10.00;;;;;;;20.59;76.20;99507.31;4749693;30;20416;-83
2022/06/03 11:55:03;;;;;;;11.30;8.60;;;;;;;20.75;76.37;99504.84;4728203;30;20189;-84
2022/06/03 11:58:22;;;;;;;10.20;8.13;;;;;;;20.77;76.64;99498.19;4750809;30;20044;-84
2022/06/03 12:01:17;;;;;;;9.23;6.97;;;;;;;21.15;74.23;99506.31;4742720;30;20097;-83
2022/06/03 12:04:31;;;;;;;7.32;6.63;;;;;;;21.25;73.28;99525.13;4716226;30;20061;-84
2022/06/03 12:07:54;;;;;;;7.72;7.03;;;;;;;21.39;71.80;99524.69;4678573;30;20054;-83
2022/06/03 12:10:41;;;;;;;8.20;6.85;;;;;;;21.15;69.90;99522.34;4717383;30;20067;-84
2022/06/03 12:13:31;;;;;;;6.90;5.82;;;;;;;20.96;69.10;99528.03;4766172;30;20058;-82
2022/06/03 12:16:10;;;;;;;6.78;5.88;;;;;;;20.95;69.66;99523.75;4768362;30;20052;-83
2022/06/03 12:19:03;;;;;;;6.35;5.68;;;;;;;20.98;65.32;99533.91;4753117;30;20075;-84
2022/06/03 12:21:52;;;;;;;7.90;6.50;;;;;;;21.23;67.83;99535.25;4766409;30;20063;-84
2022/06/03 12:24:43;;;;;;;9.57;5.93;;;;;;;20.93;67.69;99528.53;4742971;30;20543;-85
2022/06/03 12:27:53;;;;;;;6.82;6.13;;;;;;;20.71;66.28;99525.84;4695746;30;20285;-83
2022/06/03 12:30:59;;;;;;;7.00;6.38;;;;;;;20.72;67.25;99529.34;4689364;30;20046;-85
2022/06/03 12:34:08;;;;;;;7.40;6.55;;;;;;;21.35;67.59;99527.06;4731878;30;20078;-82
2022/06/03 12:37:00;;;;;;;;;;;;;;;21.82;67.72;99525.59;4738111;30;20403;-82
2022/06/03 12:39:50;;;;;;;8.07;6.93;;;;;;;22.10;65.24;99528.13;4739845;30;20010;-83
2022/06/03 12:42:39;;;;;;;13.00;7.00;;;;;;;22.33;65.29;99532.25;4742904;30;20130;-85
2022/06/03 12:45:41;;;;;;;7.55;6.53;;;;;;;22.74;64.64;99536.19;4739174;30;20071;-84
2022/06/03 12:48:51;;;;;;;11.98;8.77;;;;;;;22.59;63.35;99535.06;4767055;30;20046;-84
2022/06/03 12:51:56;;;;;;;8.90;8.02;;;;;;;22.79;63.98;99530.84;4769276;30;20403;-83
2022/06/03 12:55:06;;;;;;;8.25;6.85;;;;;;;23.10;64.19;99528.22;4778506;29;20058;-83
2022/06/03 12:57:57;;;;;;;9.50;7.20;;;;;;;23.63;65.44;99529.88;4805522;29;20049;-84
2022/06/03 13:00:54;;;;;;;10.55;6.97;;;;;;;24.13;63.91;99521.22;4800024;29;20068;-85
2022/06/03 13:03:43;;;;;;;7.85;6.63;;;;;;;24.36;63.66;99536.69;4792596;29;20495;-85
2022/06/03 13:06:27;;;;;;;8.15;6.28;;;;;;;24.71;62.76;99534.16;4787972;29;20058;-85
2022/06/03 13:09:52;;;;;;;10.93;5.82;;;;;;;24.75;60.79;99534.38;4698403;30;20502;-84
2022/06/03 13:12:35;;;;;;;9.88;6.85;;;;;;;25.13;60.08;99531.22;4714752;30;20072;-86
2022/06/03 13:15:30;;;;;;;10.85;7.43;;;;;;;25.38;60.42;99527.56;4708472;30;20049;-83
2022/06/03 13:18:36;;;;;;;7.63;6.88;;;;;;;25.07;60.45;99533.97;4697751;30;20136;-84
2022/06/03 13:21:29;;;;;;;8.45;7.55;;;;;;;24.79;62.34;99532.78;4697973;30;20075;-86
2022/06/03 13:24:33;;;;;;;10.23;7.60;;;;;;;24.56;61.74;99523.47;4665292;30;20053;-84
2022/06/03 13:27:22;;;;;;;8.73;7.60;;;;;;;23.73;62.87;99534.44;4651928;30;20062;-85
2022/06/03 13:30:14;;;;;;;10.45;7.97;;;;;;;23.02;63.99;99540.25;4666378;30;20141;-84
2022/06/03 13:33:19;;;;;;;12.77;8.60;;;;;;;23.08;64.35;99531.16;4664849;30;20105;-85
2022/06/03 13:36:09;;;;;;;8.63;7.70;;;;;;;23.07;63.36;99547.50;4665649;30;20151;-83
2022/06/03 13:39:17;;;;;;;9.25;8.30;;;;;;;22.80;62.30;99535.16;4659121;30;20065;-84
2022/06/03 13:45:21;;;;;;;19.73;7.88;;;;;;;23.20;62.45;99528.25;4677220;30;20099;-84
2022/06/03 13:48:47;;;;;;;12.10;8.20;;;;;;;23.64;63.49;99531.50;4747070;30;20177;-82
2022/06/03 13:51:51;;;;;;;7.93;6.47;;;;;;;23.94;62.50;99551.28;4728761;30;20047;-83
2022/06/03 13:54:40;;;;;;;;;;;;;;;23.39;63.01;99552.66;4727482;30;20051;-83
2022/06/03 13:57:35;;;;;;;10.07;8.85;;;;;;;22.98;64.54;99547.22;4737511;30;20395;-83
2022/06/03 14:00:29;;;;;;;11.40;7.40;;;;;;;23.47;64.26;99537.09;4761135;29;20409;-84
2022/06/03 14:03:29;;;;;;;9.13;7.72;;;;;;;23.33;64.98;99547.56;4794457;29;20425;-85
2022/06/03 14:06:21;;;;;;;8.63;7.18;;;;;;;23.74;65.58;99558.25;4808149;29;20049;-82
2022/06/03 14:09:20;;;;;;;10.88;8.48;;;;;;;24.17;63.88;99552.59;4799472;29;20473;-86
2022/06/03 14:12:07;;;;;;;10.73;8.55;;;;;;;24.74;64.07;99546.19;4807785;29;20142;-85
2022/06/03 14:15:18;;;;;;;9.10;7.57;;;;;;;23.98;64.21;99547.00;4825957;29;20126;-84
2022/06/03 14:18:03;;;;;;;15.85;8.60;;;;;;;22.96;66.01;99535.97;4826356;29;20060;-83
2022/06/03 14:20:52;;;;;;;14.23;8.27;;;;;;;22.73;66.88;99539.91;4808237;29;20107;-86
2022/06/03 14:23:41;;;;;;;9.32;8.43;;;;;;;22.85;66.75;99537.81;4821703;29;20414;-84